Time,TemperatureF,DewpointF,PressureIn,WindDirection,WindDirectionDegrees,WindSpeedMPH,WindSpeedGustMPH,Humidity,HourlyPrecipIn,Conditions,Clouds,dailyrainin,SoftwareType,DateUTC
2013-08-31 00:03:00,81.0,60.6,29.79,West,270,0.0,0.0,50,0.00,,,0.00,VWS V14.01,2013-08-31 05:03:00,
2013-08-31 00:08:00,81.0,60.6,29.79,West,270,0.0,0.0,50,0.00,,,0.00,VWS V14.01,2013-08-31 05:08:00,
2013-08-31 00:13:00,81.0,60.0,29.79,West,270,0.0,0.0,49,0.00,,,0.00,VWS V14.01,2013-08-31 05:13:00,
2013-08-31 00:18:00,80.8,59.9,29.79,West,270,0.0,0.0,49,0.00,,,0.00,VWS V14.01,2013-08-31 05:18:00,
2013-08-31 00:24:00,80.8,59.9,29.79,West,270,0.0,0.0,49,0.00,,,0.00,VWS V14.01,2013-08-31 05:24:00,
2013-08-31 00:29:00,80.6,60.3,29.82,West,270,0.0,0.0,50,0.00,,,0.00,VWS V14.01,2013-08-31 05:29:00,
2013-08-31 00:34:00,80.6,60.3,29.82,West,270,0.0,0.0,50,0.00,,,0.00,VWS V14.01,2013-08-31 05:34:00,
2013-08-31 00:39:00,80.4,60.7,29.79,West,270,0.0,0.0,51,0.00,,,0.00,VWS V14.01,2013-08-31 05:39:00,
2013-08-31 00:44:00,80.2,60.5,29.79,West,270,0.0,0.0,51,0.00,,,0.00,VWS V14.01,2013-08-31 05:44:00,
2013-08-31 00:49:00,80.2,60.5,29.79,West,270,0.0,0.0,51,0.00,,,0.00,VWS V14.01,2013-08-31 05:49:00,
2013-08-31 00:54:00,80.4,60.7,29.79,West,270,0.0,0.0,51,0.00,,,0.00,VWS V14.01,2013-08-31 05:54:00,
2013-08-31 00:59:00,80.4,60.7,29.79,West,270,0.0,0.0,51,0.00,,,0.00,VWS V14.01,2013-08-31 05:59:00,
2013-08-31 01:04:00,80.8,60.4,29.79,West,270,0.0,0.0,50,0.00,,,0.00,VWS V14.01,2013-08-31 06:04:00,
2013-08-31 01:09:00,80.6,60.3,29.79,West,270,0.0,0.0,50,0.00,,,0.00,VWS V14.01,2013-08-31 06:09:00,
2013-08-31 01:14:00,80.6,60.3,29.79,West,270,0.0,0.0,50,0.00,,,0.00,VWS V14.01,2013-08-31 06:14:00,
2013-08-31 01:19:00,80.6,60.3,29.79,West,270,0.0,0.0,50,0.00,,,0.00,VWS V14.01,2013-08-31 06:19:00,
2013-08-31 01:24:00,80.6,60.3,29.79,West,270,0.0,0.0,50,0.00,,,0.00,VWS V14.01,2013-08-31 06:24:00,
2013-08-31 01:29:00,80.8,59.9,29.79,West,270,0.0,0.0,49,0.00,,,0.00,VWS V14.01,2013-08-31 06:29:00,
2013-08-31 01:35:00,80.8,59.9,29.79,West,270,0.0,0.0,49,0.00,,,0.00,VWS V14.01,2013-08-31 06:35:00,
2013-08-31 01:39:00,80.8,59.9,29.79,West,270,0.0,0.0,49,0.00,,,0.00,VWS V14.01,2013-08-31 06:39:00,
2013-08-31 01:44:00,80.8,59.9,29.79,West,270,0.0,0.0,49,0.00,,,0.00,VWS V14.01,2013-08-31 06:44:00,
2013-08-31 01:49:00,80.8,59.9,29.79,West,270,0.0,0.0,49,0.00,,,0.00,VWS V14.01,2013-08-31 06:49:00,
2013-08-31 01:54:00,80.8,59.9,29.82,West,270,0.0,0.0,49,0.00,,,0.00,VWS V14.01,2013-08-31 06:54:00,
2013-08-31 01:59:00,80.8,59.9,29.82,West,270,0.0,0.0,49,0.00,,,0.00,VWS V14.01,2013-08-31 06:59:00,
2013-08-31 02:04:00,80.8,59.9,29.82,West,270,0.0,0.0,49,0.00,,,0.00,VWS V14.01,2013-08-31 07:04:00,
2013-08-31 04:05:00,81.0,60.0,29.79,West,270,0.0,0.0,49,0.00,,,0.00,VWS V14.01,2013-08-31 09:05:00,
2013-08-31 04:10:00,79.3,61.8,29.79,West,270,0.0,0.0,55,0.00,,,0.00,VWS V14.01,2013-08-31 09:10:00,
2013-08-31 04:15:00,79.3,61.8,29.79,West,270,0.0,0.0,55,0.00,,,0.00,VWS V14.01,2013-08-31 09:15:00,
2013-08-31 04:20:00,79.3,61.8,29.79,West,270,0.0,0.0,55,0.00,,,0.00,VWS V14.01,2013-08-31 09:20:00,
2013-08-31 04:25:00,79.2,61.6,29.76,West,270,0.0,0.0,55,0.00,,,0.00,VWS V14.01,2013-08-31 09:25:00,
2013-08-31 04:30:00,79.0,62.0,29.76,West,270,0.0,0.0,56,0.00,,,0.00,VWS V14.01,2013-08-31 09:30:00,
2013-08-31 04:35:00,79.0,62.0,29.76,West,270,0.0,0.0,56,0.00,,,0.00,VWS V14.01,2013-08-31 09:35:00,
2013-08-31 06:35:00,79.0,62.0,29.76,West,270,0.0,0.0,56,0.00,,,0.00,VWS V14.01,2013-08-31 11:35:00,
2013-08-31 06:40:00,76.1,65.2,29.79,West,270,0.0,0.0,69,0.00,,,0.00,VWS V14.01,2013-08-31 11:40:00,
2013-08-31 06:45:00,76.3,65.4,29.79,West,270,0.0,0.0,69,0.00,,,0.00,VWS V14.01,2013-08-31 11:45:00,
2013-08-31 06:50:00,76.3,65.4,29.79,West,270,0.0,0.0,69,0.00,,,0.00,VWS V14.01,2013-08-31 11:50:00,
2013-08-31 06:55:00,76.6,65.7,29.79,West,270,0.0,0.0,69,0.00,,,0.00,VWS V14.01,2013-08-31 11:55:00,
2013-08-31 07:00:00,76.8,65.5,29.79,West,270,0.0,0.0,68,0.00,,,0.00,VWS V14.01,2013-08-31 12:00:00,
2013-08-31 07:06:00,77.2,65.4,29.79,West,270,0.0,0.0,67,0.00,,,0.00,VWS V14.01,2013-08-31 12:06:00,
2013-08-31 07:11:00,77.2,65.4,29.79,West,270,0.0,0.0,67,0.00,,,0.00,VWS V14.01,2013-08-31 12:11:00,
2013-08-31 07:16:00,78.1,65.4,29.79,West,270,0.0,0.0,65,0.00,,,0.00,VWS V14.01,2013-08-31 12:16:00,
2013-08-31 07:21:00,78.3,65.1,29.79,West,270,0.0,0.0,64,0.00,,,0.00,VWS V14.01,2013-08-31 12:21:00,
2013-08-31 07:26:00,78.4,65.3,29.79,West,270,0.0,0.0,64,0.00,,,0.00,VWS V14.01,2013-08-31 12:26:00,
2013-08-31 07:31:00,78.8,65.2,29.79,West,270,0.0,0.0,63,0.00,,,0.00,VWS V14.01,2013-08-31 12:31:00,
2013-08-31 07:36:00,79.2,65.0,29.79,West,270,0.0,0.0,62,0.00,,,0.00,VWS V14.01,2013-08-31 12:36:00,
2013-08-31 07:41:00,79.2,65.0,29.79,West,270,0.0,0.0,62,0.00,,,0.00,VWS V14.01,2013-08-31 12:41:00,
2013-08-31 07:46:00,79.3,65.2,29.79,West,270,0.0,0.0,62,0.00,,,0.00,VWS V14.01,2013-08-31 12:46:00,
2013-08-31 07:51:00,80.2,65.6,29.79,West,270,0.0,0.0,61,0.00,,,0.00,VWS V14.01,2013-08-31 12:51:00,
2013-08-31 07:56:00,80.8,65.1,29.79,West,270,0.0,0.0,59,0.00,,,0.00,VWS V14.01,2013-08-31 12:56:00,
2013-08-31 08:01:00,81.1,65.5,29.79,West,270,0.0,0.0,59,0.00,,,0.00,VWS V14.01,2013-08-31 13:01:00,
2013-08-31 08:06:00,81.9,65.2,29.79,West,270,0.0,0.0,57,0.00,,,0.00,VWS V14.01,2013-08-31 13:06:00,
2013-08-31 08:11:00,82.0,65.3,29.79,West,270,0.0,0.0,57,0.00,,,0.00,VWS V14.01,2013-08-31 13:11:00,
2013-08-31 08:16:00,82.0,65.3,29.79,West,270,0.0,0.0,57,0.00,,,0.00,VWS V14.01,2013-08-31 13:16:00,
2013-08-31 08:22:00,82.2,65.5,29.79,West,270,0.0,0.0,57,0.00,,,0.00,VWS V14.01,2013-08-31 13:22:00,
2013-08-31 08:27:00,82.9,65.7,29.79,West,270,0.0,0.0,56,0.00,,,0.00,VWS V14.01,2013-08-31 13:27:00,
2013-08-31 08:32:00,83.5,65.6,29.79,West,270,0.0,0.0,55,0.00,,,0.00,VWS V14.01,2013-08-31 13:32:00,
2013-08-31 08:37:00,84.2,65.2,29.79,West,270,0.0,0.0,53,0.00,,,0.00,VWS V14.01,2013-08-31 13:37:00,
2013-08-31 08:42:00,84.9,65.9,29.79,West,270,0.0,0.0,53,0.00,,,0.00,VWS V14.01,2013-08-31 13:42:00,
2013-08-31 08:47:00,85.3,65.7,29.79,West,270,0.0,0.0,52,0.00,,,0.00,VWS V14.01,2013-08-31 13:47:00,
2013-08-31 08:52:00,85.6,66.0,29.79,West,270,0.0,0.0,52,0.00,,,0.00,VWS V14.01,2013-08-31 13:52:00,
2013-08-31 08:57:00,85.6,66.0,29.79,West,270,0.0,0.0,52,0.00,,,0.00,VWS V14.01,2013-08-31 13:57:00,
2013-08-31 09:02:00,85.8,66.2,29.79,West,270,0.0,0.0,52,0.00,,,0.00,VWS V14.01,2013-08-31 14:02:00,
2013-08-31 09:07:00,86.0,66.3,29.79,West,270,0.0,0.0,52,0.00,,,0.00,VWS V14.01,2013-08-31 14:07:00,
2013-08-31 09:12:00,85.6,66.0,29.79,WNW,292,0.0,0.0,52,0.00,,,0.00,VWS V14.01,2013-08-31 14:12:00,
2013-08-31 09:17:00,86.0,66.3,29.79,WNW,292,0.0,0.0,52,0.00,,,0.00,VWS V14.01,2013-08-31 14:17:00,
2013-08-31 09:22:00,86.5,65.7,29.79,West,270,0.0,0.0,50,0.00,,,0.00,VWS V14.01,2013-08-31 14:22:00,
2013-08-31 09:27:00,86.7,65.9,29.79,West,270,0.0,0.0,50,0.00,,,0.00,VWS V14.01,2013-08-31 14:27:00,
2013-08-31 09:33:00,86.7,65.9,29.79,West,270,0.0,0.0,50,0.00,,,0.00,VWS V14.01,2013-08-31 14:33:00,
2013-08-31 09:38:00,86.5,65.1,29.79,WNW,292,3.1,3.6,49,0.00,,,0.00,VWS V14.01,2013-08-31 14:38:00,
2013-08-31 09:43:00,86.4,65.0,29.79,WNW,292,0.0,0.0,49,0.00,,,0.00,VWS V14.01,2013-08-31 14:43:00,
2013-08-31 09:48:00,87.1,66.8,29.79,WSW,248,0.0,0.0,51,0.00,,,0.00,VWS V14.01,2013-08-31 14:48:00,
2013-08-31 09:53:00,87.1,65.6,29.79,West,270,0.0,0.0,49,0.00,,,0.00,VWS V14.01,2013-08-31 14:53:00,
2013-08-31 09:58:00,87.3,66.4,29.79,WNW,292,0.0,0.0,50,0.00,,,0.00,VWS V14.01,2013-08-31 14:58:00,
2013-08-31 10:03:00,87.6,66.1,29.79,SW,225,0.0,0.0,49,0.00,,,0.00,VWS V14.01,2013-08-31 15:03:00,
2013-08-31 10:08:00,87.6,66.1,29.79,WSW,248,0.0,0.0,49,0.00,,,0.00,VWS V14.01,2013-08-31 15:08:00,
2013-08-31 10:13:00,87.8,66.3,29.79,West,270,0.0,0.0,49,0.00,,,0.00,VWS V14.01,2013-08-31 15:13:00,
2013-08-31 10:18:00,87.8,65.7,29.79,West,270,0.0,0.0,48,0.00,,,0.00,VWS V14.01,2013-08-31 15:18:00,
2013-08-31 10:23:00,88.2,66.0,29.82,West,270,0.0,0.0,48,0.00,,,0.00,VWS V14.01,2013-08-31 15:23:00,
2013-08-31 10:28:00,88.5,66.3,29.82,WSW,248,0.0,0.0,48,0.00,,,0.00,VWS V14.01,2013-08-31 15:28:00,
2013-08-31 10:33:00,88.7,66.5,29.82,SSW,202,0.0,0.0,48,0.00,,,0.00,VWS V14.01,2013-08-31 15:33:00,
2013-08-31 10:38:00,88.3,65.6,29.79,WNW,292,0.0,0.0,47,0.00,,,0.00,VWS V14.01,2013-08-31 15:38:00,
2013-08-31 10:44:00,88.3,65.6,29.79,SW,225,0.0,0.0,47,0.00,,,0.00,VWS V14.01,2013-08-31 15:44:00,
2013-08-31 10:49:00,88.7,65.9,29.79,SW,225,0.0,0.0,47,0.00,,,0.00,VWS V14.01,2013-08-31 15:49:00,
2013-08-31 10:54:00,88.7,66.5,29.79,SW,225,0.0,0.0,48,0.00,,,0.00,VWS V14.01,2013-08-31 15:54:00,
2013-08-31 10:59:00,88.9,66.7,29.79,WNW,292,0.0,0.0,48,0.00,,,0.00,VWS V14.01,2013-08-31 15:59:00,
2013-08-31 11:04:00,88.7,66.5,29.79,WNW,292,0.0,0.0,48,0.00,,,0.00,VWS V14.01,2013-08-31 16:04:00,
2013-08-31 11:09:00,88.9,66.7,29.79,WSW,248,2.7,3.1,48,0.00,,,0.00,VWS V14.01,2013-08-31 16:09:00,
2013-08-31 11:14:00,88.9,66.1,29.79,WNW,292,0.0,0.0,47,0.00,,,0.00,VWS V14.01,2013-08-31 16:14:00,
2013-08-31 11:19:00,88.9,66.7,29.79,WSW,248,0.0,0.0,48,0.00,,,0.00,VWS V14.01,2013-08-31 16:19:00,
2013-08-31 11:24:00,89.4,67.2,29.79,WSW,248,0.0,0.0,48,0.00,,,0.00,VWS V14.01,2013-08-31 16:24:00,
2013-08-31 11:29:00,89.8,66.9,29.79,WSW,248,0.0,0.0,47,0.00,,,0.00,VWS V14.01,2013-08-31 16:29:00,
2013-08-31 11:34:00,89.6,66.1,29.79,NW,315,0.0,0.0,46,0.00,,,0.00,VWS V14.01,2013-08-31 16:34:00,
2013-08-31 11:39:00,89.6,66.7,29.79,WSW,248,0.0,0.0,47,0.00,,,0.00,VWS V14.01,2013-08-31 16:39:00,
2013-08-31 11:44:00,89.8,66.3,29.79,WNW,292,0.0,0.0,46,0.00,,,0.00,VWS V14.01,2013-08-31 16:44:00,
2013-08-31 11:49:00,89.8,66.3,29.79,WNW,292,0.0,0.0,46,0.00,,,0.00,VWS V14.01,2013-08-31 16:49:00,
2013-08-31 11:55:00,89.8,66.3,29.79,WNW,292,0.0,0.0,46,0.00,,,0.00,VWS V14.01,2013-08-31 16:55:00,
2013-08-31 12:00:00,90.1,66.6,29.79,WSW,248,0.0,0.0,46,0.00,,,0.00,VWS V14.01,2013-08-31 17:00:00,
2013-08-31 12:05:00,90.5,66.9,29.79,SSW,202,0.0,0.0,46,0.00,,,0.00,VWS V14.01,2013-08-31 17:05:00,
2013-08-31 12:10:00,90.7,67.1,29.79,ENE,68,0.0,0.0,46,0.00,,,0.00,VWS V14.01,2013-08-31 17:10:00,
2013-08-31 12:15:00,90.7,67.1,29.79,ENE,68,0.0,0.0,46,0.00,,,0.00,VWS V14.01,2013-08-31 17:15:00,
2013-08-31 12:20:00,91.0,67.4,29.79,SW,225,0.0,0.0,46,0.00,,,0.00,VWS V14.01,2013-08-31 17:20:00,
2013-08-31 12:25:00,91.0,66.8,29.79,SW,225,0.0,0.0,45,0.00,,,0.00,VWS V14.01,2013-08-31 17:25:00,
2013-08-31 12:30:00,91.0,66.8,29.79,SW,225,0.0,0.0,45,0.00,,,0.00,VWS V14.01,2013-08-31 17:30:00,
2013-08-31 12:35:00,91.2,66.9,29.76,NW,315,0.0,0.0,45,0.00,,,0.00,VWS V14.01,2013-08-31 17:35:00,
2013-08-31 12:40:00,91.6,67.2,29.76,NW,315,0.0,0.0,45,0.00,,,0.00,VWS V14.01,2013-08-31 17:40:00,
2013-08-31 12:45:00,91.9,66.9,29.76,SW,225,0.0,0.0,44,0.00,,,0.00,VWS V14.01,2013-08-31 17:45:00,
2013-08-31 12:50:00,91.9,66.9,29.76,SW,225,0.0,0.0,44,0.00,,,0.00,VWS V14.01,2013-08-31 17:50:00,
2013-08-31 12:55:00,92.3,67.2,29.76,SW,225,0.0,0.0,44,0.00,,,0.00,VWS V14.01,2013-08-31 17:55:00,
2013-08-31 13:00:00,92.7,66.9,29.76,SW,225,0.0,0.0,43,0.00,,,0.00,VWS V14.01,2013-08-31 18:00:00,
2013-08-31 13:06:00,92.7,66.9,29.76,SW,225,0.0,0.0,43,0.00,,,0.00,VWS V14.01,2013-08-31 18:06:00,
2013-08-31 13:11:00,92.5,68.1,29.76,SW,225,0.0,0.0,45,0.00,,,0.00,VWS V14.01,2013-08-31 18:11:00,
2013-08-31 13:16:00,92.1,67.1,29.76,NW,315,0.0,0.0,44,0.00,,,0.00,VWS V14.01,2013-08-31 18:16:00,
2013-08-31 13:21:00,92.5,66.8,29.76,NW,315,0.0,0.0,43,0.00,,,0.00,VWS V14.01,2013-08-31 18:21:00,
2013-08-31 13:26:00,92.8,67.1,29.76,NW,315,0.0,0.0,43,0.00,,,0.00,VWS V14.01,2013-08-31 18:26:00,
2013-08-31 13:31:00,92.8,67.1,29.76,NW,315,0.0,0.0,43,0.00,,,0.00,VWS V14.01,2013-08-31 18:31:00,
2013-08-31 13:36:00,92.7,66.9,29.76,NW,315,0.0,0.0,43,0.00,,,0.00,VWS V14.01,2013-08-31 18:36:00,
2013-08-31 13:41:00,92.7,66.9,29.76,NW,315,0.0,0.0,43,0.00,,,0.00,VWS V14.01,2013-08-31 18:41:00,
2013-08-31 13:46:00,93.0,66.6,29.76,NW,315,0.0,0.0,42,0.00,,,0.00,VWS V14.01,2013-08-31 18:46:00,
2013-08-31 13:51:00,93.0,66.6,29.79,NW,315,0.0,0.0,42,0.00,,,0.00,VWS V14.01,2013-08-31 18:51:00,
2013-08-31 13:56:00,93.6,66.3,29.79,NW,315,0.0,0.0,41,0.00,,,0.00,VWS V14.01,2013-08-31 18:56:00,
2013-08-31 14:01:00,93.2,65.3,29.79,NW,315,0.0,0.0,40,0.00,,,0.00,VWS V14.01,2013-08-31 19:01:00,
2013-08-31 14:06:00,93.4,65.5,29.76,NW,315,0.0,4.0,40,0.00,,,0.00,VWS V14.01,2013-08-31 19:06:00,
2013-08-31 14:11:00,93.7,66.5,29.76,NW,315,0.0,0.0,41,0.00,,,0.00,VWS V14.01,2013-08-31 19:11:00,
2013-08-31 14:17:00,93.7,66.5,29.76,NW,315,0.0,0.0,41,0.00,,,0.00,VWS V14.01,2013-08-31 19:17:00,
2013-08-31 14:22:00,93.6,64.2,29.76,NW,315,6.3,6.3,38,0.00,,,0.00,VWS V14.01,2013-08-31 19:22:00,
2013-08-31 14:27:00,93.7,65.1,29.76,NW,315,0.0,2.7,39,0.00,,,0.00,VWS V14.01,2013-08-31 19:27:00,
2013-08-31 14:32:00,94.1,63.9,29.76,NW,315,0.0,0.0,37,0.00,,,0.00,VWS V14.01,2013-08-31 19:32:00,
2013-08-31 14:37:00,93.9,62.1,29.76,NW,315,0.0,0.0,35,0.00,,,0.00,VWS V14.01,2013-08-31 19:37:00,
2013-08-31 14:42:00,94.1,61.5,29.76,NW,315,0.0,0.0,34,0.00,,,0.00,VWS V14.01,2013-08-31 19:42:00,
2013-08-31 14:47:00,93.9,60.5,29.76,NW,315,0.0,0.0,33,0.00,,,0.00,VWS V14.01,2013-08-31 19:47:00,
2013-08-31 14:52:00,93.9,60.5,29.76,NW,315,0.0,0.0,33,0.00,,,0.00,VWS V14.01,2013-08-31 19:52:00,
2013-08-31 14:57:00,94.3,64.8,29.76,NNW,338,0.0,0.0,38,0.00,,,0.00,VWS V14.01,2013-08-31 19:57:00,
2013-08-31 15:02:00,93.6,63.4,29.76,NW,315,3.6,4.9,37,0.00,,,0.00,VWS V14.01,2013-08-31 20:02:00,
2013-08-31 15:07:00,93.9,63.7,29.76,ENE,68,2.7,2.7,37,0.00,,,0.00,VWS V14.01,2013-08-31 20:07:00,
2013-08-31 15:12:00,93.7,63.6,29.76,ENE,68,0.0,0.0,37,0.00,,,0.00,VWS V14.01,2013-08-31 20:12:00,
2013-08-31 15:17:00,93.9,63.7,29.76,ENE,68,0.0,0.0,37,0.00,,,0.00,VWS V14.01,2013-08-31 20:17:00,
2013-08-31 15:22:00,93.7,63.6,29.76,ENE,68,0.0,0.0,37,0.00,,,0.00,VWS V14.01,2013-08-31 20:22:00,
2013-08-31 15:27:00,93.7,63.6,29.76,NW,315,3.6,3.6,37,0.00,,,0.00,VWS V14.01,2013-08-31 20:27:00,
2013-08-31 15:32:00,93.6,61.8,29.76,ENE,68,0.0,0.0,35,0.00,,,0.00,VWS V14.01,2013-08-31 20:32:00,
2013-08-31 15:37:00,93.7,63.6,29.76,NE,45,0.0,0.0,37,0.00,,,0.00,VWS V14.01,2013-08-31 20:37:00,
2013-08-31 15:42:00,93.7,62.0,29.76,NW,315,0.0,0.0,35,0.00,,,0.00,VWS V14.01,2013-08-31 20:42:00,
2013-08-31 15:47:00,93.9,59.6,29.76,ENE,68,0.0,0.0,32,0.00,,,0.00,VWS V14.01,2013-08-31 20:47:00,
2013-08-31 15:52:00,93.9,59.6,29.76,NNW,338,0.0,0.0,32,0.00,,,0.00,VWS V14.01,2013-08-31 20:52:00,
2013-08-31 15:57:00,93.7,58.6,29.76,NW,315,0.0,0.0,31,0.00,,,0.00,VWS V14.01,2013-08-31 20:57:00,
2013-08-31 16:03:00,94.3,59.0,29.76,NW,315,0.0,0.0,31,0.00,,,0.00,VWS V14.01,2013-08-31 21:03:00,
2013-08-31 16:08:00,94.5,57.3,29.76,NW,315,0.0,0.0,29,0.00,,,0.00,VWS V14.01,2013-08-31 21:08:00,
2013-08-31 16:13:00,94.6,58.4,29.76,NW,315,0.0,0.0,30,0.00,,,0.00,VWS V14.01,2013-08-31 21:13:00,
2013-08-31 16:18:00,94.8,57.6,29.76,NW,315,0.0,0.0,29,0.00,,,0.00,VWS V14.01,2013-08-31 21:18:00,
2013-08-31 16:23:00,94.3,57.2,29.74,NW,315,0.0,0.0,29,0.00,,,0.00,VWS V14.01,2013-08-31 21:23:00,
2013-08-31 16:28:00,93.9,56.9,29.74,NW,315,0.0,0.0,29,0.00,,,0.00,VWS V14.01,2013-08-31 21:28:00,
2013-08-31 16:33:00,93.4,55.4,29.74,NW,315,0.0,0.0,28,0.00,,,0.00,VWS V14.01,2013-08-31 21:33:00,
2013-08-31 16:38:00,93.4,55.4,29.74,NW,315,0.0,0.0,28,0.00,,,0.00,VWS V14.01,2013-08-31 21:38:00,
2013-08-31 16:43:00,93.7,55.7,29.76,NW,315,0.0,0.0,28,0.00,,,0.00,VWS V14.01,2013-08-31 21:43:00,
2013-08-31 16:48:00,94.1,55.0,29.76,NW,315,0.0,0.0,27,0.00,,,0.00,VWS V14.01,2013-08-31 21:48:00,
2013-08-31 16:53:00,94.3,56.2,29.76,NW,315,0.0,0.0,28,0.00,,,0.00,VWS V14.01,2013-08-31 21:53:00,
2013-08-31 16:58:00,94.1,56.0,29.76,NW,315,0.0,0.0,28,0.00,,,0.00,VWS V14.01,2013-08-31 21:58:00,
2013-08-31 17:03:00,94.3,55.2,29.76,NW,315,0.0,0.0,27,0.00,,,0.00,VWS V14.01,2013-08-31 22:03:00,
2013-08-31 17:08:00,94.3,55.2,29.76,East,90,0.0,0.0,27,0.00,,,0.00,VWS V14.01,2013-08-31 22:08:00,
2013-08-31 17:14:00,94.3,55.2,29.76,North,0,0.0,0.0,27,0.00,,,0.00,VWS V14.01,2013-08-31 22:14:00,
2013-08-31 17:19:00,93.6,55.6,29.76,NNW,338,0.0,0.0,28,0.00,,,0.00,VWS V14.01,2013-08-31 22:19:00,
2013-08-31 17:24:00,93.4,55.4,29.76,NW,315,0.0,0.0,28,0.00,,,0.00,VWS V14.01,2013-08-31 22:24:00,
2013-08-31 17:29:00,93.2,56.2,29.76,NW,315,0.0,0.0,29,0.00,,,0.00,VWS V14.01,2013-08-31 22:29:00,
2013-08-31 17:34:00,93.0,55.1,29.76,NW,315,0.0,0.0,28,0.00,,,0.00,VWS V14.01,2013-08-31 22:34:00,
2013-08-31 17:39:00,92.8,55.0,29.74,NW,315,0.0,0.0,28,0.00,,,0.00,VWS V14.01,2013-08-31 22:39:00,
2013-08-31 17:44:00,92.7,55.8,29.74,NW,315,0.0,0.0,29,0.00,,,0.00,VWS V14.01,2013-08-31 22:44:00,
2013-08-31 17:49:00,92.7,55.8,29.74,NW,315,0.0,0.0,29,0.00,,,0.00,VWS V14.01,2013-08-31 22:49:00,
2013-08-31 17:54:00,91.8,56.0,29.76,ENE,68,0.0,0.0,30,0.00,,,0.00,VWS V14.01,2013-08-31 22:54:00,
2013-08-31 17:59:00,91.4,55.6,29.76,ENE,68,0.0,0.0,30,0.00,,,0.00,VWS V14.01,2013-08-31 22:59:00,
2013-08-31 18:04:00,91.4,54.7,29.76,NW,315,0.0,0.0,29,0.00,,,0.00,VWS V14.01,2013-08-31 23:04:00,
2013-08-31 18:09:00,91.2,55.5,29.74,ENE,68,0.0,0.0,30,0.00,,,0.00,VWS V14.01,2013-08-31 23:09:00,
2013-08-31 18:14:00,91.0,56.2,29.74,ENE,68,0.0,0.0,31,0.00,,,0.00,VWS V14.01,2013-08-31 23:14:00,
2013-08-31 18:19:00,90.7,55.9,29.74,NW,315,0.0,0.0,31,0.00,,,0.00,VWS V14.01,2013-08-31 23:19:00,
2013-08-31 18:25:00,90.7,55.9,29.76,NW,315,0.0,0.0,31,0.00,,,0.00,VWS V14.01,2013-08-31 23:25:00,
2013-08-31 18:30:00,90.3,54.7,29.76,NW,315,0.0,0.0,30,0.00,,,0.00,VWS V14.01,2013-08-31 23:30:00,
2013-08-31 18:35:00,90.1,54.5,29.76,NW,315,0.0,0.0,30,0.00,,,0.00,VWS V14.01,2013-08-31 23:35:00,
2013-08-31 18:40:00,90.0,54.4,29.74,NW,315,0.0,0.0,30,0.00,,,0.00,VWS V14.01,2013-08-31 23:40:00,
2013-08-31 18:45:00,89.8,55.1,29.74,NW,315,0.0,0.0,31,0.00,,,0.00,VWS V14.01,2013-08-31 23:45:00,
2013-08-31 18:50:00,89.6,55.9,29.74,NW,315,0.0,0.0,32,0.00,,,0.00,VWS V14.01,2013-08-31 23:50:00,
2013-08-31 18:55:00,89.4,56.6,29.74,NW,315,0.0,0.0,33,0.00,,,0.00,VWS V14.01,2013-08-31 23:55:00,
2013-08-31 19:00:00,89.4,56.6,29.74,NW,315,0.0,0.0,33,0.00,,,0.00,VWS V14.01,2013-09-01 00:00:00,
2013-08-31 19:05:00,88.7,58.3,29.74,NW,315,0.0,0.0,36,0.00,,,0.00,VWS V14.01,2013-09-01 00:05:00,
2013-08-31 19:10:00,88.3,59.5,29.74,NW,315,0.0,0.0,38,0.00,,,0.00,VWS V14.01,2013-09-01 00:10:00,
2013-08-31 19:15:00,88.0,60.0,29.74,NW,315,0.0,0.0,39,0.00,,,0.00,VWS V14.01,2013-09-01 00:15:00,
2013-08-31 19:20:00,87.6,60.3,29.74,NW,315,0.0,0.0,40,0.00,,,0.00,VWS V14.01,2013-09-01 00:20:00,
2013-08-31 19:25:00,87.1,60.5,29.74,NW,315,0.0,0.0,41,0.00,,,0.00,VWS V14.01,2013-09-01 00:25:00,
2013-08-31 19:30:00,87.1,61.2,29.74,NW,315,0.0,0.0,42,0.00,,,0.00,VWS V14.01,2013-09-01 00:30:00,
2013-08-31 19:36:00,86.9,61.1,29.74,NW,315,0.0,0.0,42,0.00,,,0.00,VWS V14.01,2013-09-01 00:36:00,
2013-08-31 19:41:00,86.4,61.9,29.74,NW,315,0.0,0.0,44,0.00,,,0.00,VWS V14.01,2013-09-01 00:41:00,
2013-08-31 19:46:00,86.2,61.7,29.74,ENE,68,0.0,0.0,44,0.00,,,0.00,VWS V14.01,2013-09-01 00:46:00,
2013-08-31 19:51:00,86.0,62.2,29.74,ENE,68,0.0,0.0,45,0.00,,,0.00,VWS V14.01,2013-09-01 00:51:00,
2013-08-31 19:56:00,85.8,62.0,29.74,ENE,68,0.0,0.0,45,0.00,,,0.00,VWS V14.01,2013-09-01 00:56:00,
2013-08-31 20:01:00,85.8,62.7,29.74,ENE,68,0.0,0.0,46,0.00,,,0.00,VWS V14.01,2013-09-01 01:01:00,
2013-08-31 20:06:00,85.6,62.5,29.74,ENE,68,0.0,0.0,46,0.00,,,0.00,VWS V14.01,2013-09-01 01:06:00,
2013-08-31 20:11:00,85.6,62.5,29.74,ENE,68,0.0,0.0,46,0.00,,,0.00,VWS V14.01,2013-09-01 01:11:00,
2013-08-31 20:16:00,85.5,62.3,29.74,ENE,68,0.0,0.0,46,0.00,,,0.00,VWS V14.01,2013-09-01 01:16:00,
2013-08-31 20:21:00,85.3,62.8,29.76,ENE,68,0.0,0.0,47,0.00,,,0.00,VWS V14.01,2013-09-01 01:21:00,
2013-08-31 20:26:00,85.1,62.6,29.76,ENE,68,0.0,0.0,47,0.00,,,0.00,VWS V14.01,2013-09-01 01:26:00,
2013-08-31 20:31:00,84.9,62.5,29.76,NE,45,0.0,0.0,47,0.00,,,0.00,VWS V14.01,2013-09-01 01:31:00,
2013-08-31 20:36:00,84.9,62.5,29.76,NE,45,0.0,0.0,47,0.00,,,0.00,VWS V14.01,2013-09-01 01:36:00,
2013-08-31 20:41:00,84.6,62.1,29.76,NE,45,0.0,0.0,47,0.00,,,0.00,VWS V14.01,2013-09-01 01:41:00,
2013-08-31 20:47:00,84.6,62.1,29.76,NE,45,0.0,0.0,47,0.00,,,0.00,VWS V14.01,2013-09-01 01:47:00,
2013-08-31 20:52:00,84.2,62.4,29.79,NE,45,0.0,0.0,48,0.00,,,0.00,VWS V14.01,2013-09-01 01:52:00,
2013-08-31 20:57:00,84.0,62.8,29.79,NE,45,0.0,0.0,49,0.00,,,0.00,VWS V14.01,2013-09-01 01:57:00,
2013-08-31 21:02:00,83.8,62.7,29.79,NE,45,0.0,0.0,49,0.00,,,0.00,VWS V14.01,2013-09-01 02:02:00,
2013-08-31 21:07:00,83.7,63.1,29.76,NE,45,0.0,0.0,50,0.00,,,0.00,VWS V14.01,2013-09-01 02:07:00,
2013-08-31 21:12:00,83.5,62.9,29.76,NE,45,0.0,0.0,50,0.00,,,0.00,VWS V14.01,2013-09-01 02:12:00,
2013-08-31 21:17:00,83.3,63.3,29.76,NE,45,0.0,0.0,51,0.00,,,0.00,VWS V14.01,2013-09-01 02:17:00,
2013-08-31 21:22:00,83.3,63.3,29.76,NE,45,0.0,0.0,51,0.00,,,0.00,VWS V14.01,2013-09-01 02:22:00,
2013-08-31 21:27:00,82.8,62.8,29.76,NE,45,0.0,0.0,51,0.00,,,0.00,VWS V14.01,2013-09-01 02:27:00,
2013-08-31 21:32:00,82.6,63.2,29.76,NE,45,0.0,0.0,52,0.00,,,0.00,VWS V14.01,2013-09-01 02:32:00,
2013-08-31 21:37:00,82.4,63.0,29.79,NE,45,0.0,0.0,52,0.00,,,0.00,VWS V14.01,2013-09-01 02:37:00,
2013-08-31 21:42:00,82.2,63.4,29.79,NE,45,0.0,0.0,53,0.00,,,0.00,VWS V14.01,2013-09-01 02:42:00,
2013-08-31 21:47:00,82.0,63.8,29.79,NE,45,0.0,0.0,54,0.00,,,0.00,VWS V14.01,2013-09-01 02:47:00,
2013-08-31 21:52:00,81.9,63.6,29.79,NE,45,0.0,0.0,54,0.00,,,0.00,VWS V14.01,2013-09-01 02:52:00,
2013-08-31 21:58:00,81.9,63.6,29.79,NE,45,0.0,0.0,54,0.00,,,0.00,VWS V14.01,2013-09-01 02:58:00,
2013-08-31 22:03:00,81.3,63.6,29.79,NE,45,0.0,0.0,55,0.00,,,0.00,VWS V14.01,2013-09-01 03:03:00,
2013-08-31 22:08:00,81.3,64.1,29.79,NE,45,0.0,0.0,56,0.00,,,0.00,VWS V14.01,2013-09-01 03:08:00,
2013-08-31 22:13:00,81.1,64.0,29.79,NE,45,0.0,0.0,56,0.00,,,0.00,VWS V14.01,2013-09-01 03:13:00,
2013-08-31 22:18:00,81.0,64.3,29.79,NE,45,0.0,0.0,57,0.00,,,0.00,VWS V14.01,2013-09-01 03:18:00,
2013-08-31 22:23:00,80.8,64.1,29.79,NE,45,0.0,0.0,57,0.00,,,0.00,VWS V14.01,2013-09-01 03:23:00,
2013-08-31 22:28:00,80.4,64.3,29.79,ENE,68,0.0,0.0,58,0.00,,,0.00,VWS V14.01,2013-09-01 03:28:00,
2013-08-31 22:33:00,80.2,64.6,29.79,ENE,68,0.0,0.0,59,0.00,,,0.00,VWS V14.01,2013-09-01 03:33:00,
2013-08-31 22:38:00,80.2,64.6,29.79,ENE,68,0.0,0.0,59,0.00,,,0.00,VWS V14.01,2013-09-01 03:38:00,
2013-08-31 22:43:00,79.9,64.8,29.79,East,90,0.0,0.0,60,0.00,,,0.00,VWS V14.01,2013-09-01 03:43:00,
2013-08-31 22:47:00,79.7,64.6,29.79,ENE,68,0.0,0.0,60,0.00,,,0.00,VWS V14.01,2013-09-01 03:47:00,
2013-08-31 22:52:00,79.7,64.6,29.79,East,90,0.0,0.0,60,0.00,,,0.00,VWS V14.01,2013-09-01 03:52:00,
2013-08-31 22:57:00,79.5,64.9,29.79,ENE,68,0.0,0.0,61,0.00,,,0.00,VWS V14.01,2013-09-01 03:57:00,
2013-08-31 23:01:00,79.3,64.7,29.79,East,90,0.0,0.0,61,0.00,,,0.00,VWS V14.01,2013-09-01 04:01:00,
2013-08-31 23:02:00,79.3,64.7,29.79,East,90,0.0,0.0,61,0.00,,,0.00,VWS V14.01,2013-09-01 04:02:00,
2013-08-31 23:07:00,79.0,64.9,29.79,ENE,68,0.0,0.0,62,0.00,,,0.00,VWS V14.01,2013-09-01 04:07:00,
2013-08-31 23:12:00,78.8,64.7,29.79,ENE,68,0.0,0.0,62,0.00,,,0.00,VWS V14.01,2013-09-01 04:12:00,
2013-08-31 23:17:00,78.6,65.0,29.79,ENE,68,0.0,0.0,63,0.00,,,0.00,VWS V14.01,2013-09-01 04:17:00,
2013-08-31 23:22:00,78.4,65.3,29.79,ENE,68,0.0,0.0,64,0.00,,,0.00,VWS V14.01,2013-09-01 04:22:00,
2013-08-31 23:27:00,78.3,65.1,29.79,ENE,68,0.0,0.0,64,0.00,,,0.00,VWS V14.01,2013-09-01 04:27:00,
2013-08-31 23:32:00,78.1,65.4,29.79,ENE,68,0.0,0.0,65,0.00,,,0.00,VWS V14.01,2013-09-01 04:32:00,
2013-08-31 23:37:00,77.7,65.5,29.79,ENE,68,0.0,0.0,66,0.00,,,0.00,VWS V14.01,2013-09-01 04:37:00,
2013-08-31 23:42:00,77.5,65.3,29.79,ENE,68,0.0,0.0,66,0.00,,,0.00,VWS V14.01,2013-09-01 04:42:00,
2013-08-31 23:47:00,77.4,65.6,29.79,ENE,68,0.0,0.0,67,0.00,,,0.00,VWS V14.01,2013-09-01 04:47:00,
2013-08-31 23:52:00,77.0,65.6,29.79,ENE,68,0.0,0.0,68,0.00,,,0.00,VWS V14.01,2013-09-01 04:52:00,
2013-08-31 23:57:00,77.0,65.6,29.79,ENE,68,0.0,0.0,68,0.00,,,0.00,VWS V14.01,2013-09-01 04:57:00,